aviador You're here:

GMMB Decoded Metar

BEN SLIMANE in MOROCCO
Report Time2018-06-18 15:00:00
UTC Time2018-06-18 15:26:26
Flight Rules mvfr MVFR
Wind270° at 10 kt
W.Decomp.*RWY 32: 6.7 kt HW 7.4 kt LCW
W.Rank270° ranks 32
Current wind is above 270° avg. (6.7)
Visibility6000 m
Phenomena:N/A
Clouds:N/A
Expected CloudBase > 3,200 ft AGL from Temp-Dew spread
CeilingNone
Temp26°C (ISA +12)
Dew Point18°C (61% RH)
AAT25.1°C
QNH1018 hPa
Density Alt2,149 ft
Elevation626 ft
Report Wrong Elevation
Raw Report
METAR GMMB 181500Z 27010KT 220V310 6000 NSC 26/18 Q1018 NOSIG=

Extra information for GMMB:More info

Metar Taf Metar & Taf Last 4 Metars F.Rules Stats Wind Profile Meteogram Temp Stats Airport Information Weather charts Add Link Nearby VenuesMetar ALERT Operation Metar Decoded Social comments